West Alexandria, Ohio
Current Conditions -  °F | °C
As of 4:15 AM on Wednesday 22 Oct 2014 (Local Time) from KMWO Reporting Station
Overcast Overcast  
Wind Chill: 47°   Ceiling: 4000
Heat Index: 49°   Visibility: 10mi
Dew Point: 40°   Wind: 6mph
Humidity: 72%   Direction: 30°NNE
Pressure: 30.22"   Gusts: NA
Location:  39.74°N, 84.53°W
Report Text: KMWO 220815Z AUTO 03005KT 10SM OVC040 10/05 A3022 RMK AO2 T00960047
Loading
Personal Weather Stations






























Interactive Weather Map
Tropical Storm Tracking
New forecast layout! Learn more

10-Day Weather Forecast

Advertisements
Track Severe Weather on mobile